Time,TemperatureF,DewpointF,PressureIn,WindDirection,WindDirectionDegrees,WindSpeedMPH,WindSpeedGustMPH,Humidity,HourlyPrecipIn,Conditions,Clouds,dailyrainin,SolarRadiationWatts/m^2,SoftwareType,DateUTC
2013-11-22 00:03:00,38.6,32.0,30.41,SW,223,0.0,0.0,77,0.00,,,0.00,0,Wunderground v.1.15,2013-11-22 05:03:00,
2013-11-22 00:05:00,38.6,32.0,30.41,SW,223,0.0,0.0,77,0.00,,,0.00,0,Wunderground v.1.15,2013-11-22 05:05:00,
2013-11-22 00:11:00,38.5,31.9,30.41,SW,223,0.0,0.0,77,0.00,,,0.00,0,Wunderground v.1.15,2013-11-22 05:11:00,
2013-11-22 00:17:00,38.5,32.2,30.40,SW,223,0.0,0.0,78,0.00,,,0.00,0,Wunderground v.1.15,2013-11-22 05:17:00,
2013-11-22 00:21:00,38.5,32.2,30.40,SW,223,0.0,0.0,78,0.00,,,0.00,0,Wunderground v.1.15,2013-11-22 05:21:00,
2013-11-22 00:25:00,38.5,32.2,30.40,SW,223,0.0,0.0,78,0.00,,,0.00,0,Wunderground v.1.15,2013-11-22 05:25:00,
2013-11-22 00:31:00,38.6,32.3,30.39,SW,223,0.0,0.0,78,0.00,,,0.00,0,Wunderground v.1.15,2013-11-22 05:31:00,
2013-11-22 00:37:00,38.6,32.3,30.39,SW,223,0.0,0.0,78,0.00,,,0.00,0,Wunderground v.1.15,2013-11-22 05:37:00,
2013-11-22 00:43:00,38.8,32.5,30.39,SW,223,0.0,0.0,78,0.00,,,0.00,0,Wunderground v.1.15,2013-11-22 05:43:00,
2013-11-22 00:49:00,38.9,32.9,30.39,SW,223,0.0,0.0,79,0.00,,,0.00,0,Wunderground v.1.15,2013-11-22 05:49:00,
2013-11-22 00:55:00,38.9,32.9,30.39,SW,223,0.0,0.0,79,0.00,,,0.00,0,Wunderground v.1.15,2013-11-22 05:55:00,
2013-11-22 01:01:00,39.1,33.1,30.38,SW,223,0.0,0.0,79,0.00,,,0.00,0,Wunderground v.1.15,2013-11-22 06:01:00,
2013-11-22 01:07:00,39.1,33.1,30.38,SW,223,0.0,0.0,79,0.00,,,0.00,0,Wunderground v.1.15,2013-11-22 06:07:00,
2013-11-22 01:13:00,39.1,33.1,30.38,SW,223,0.0,0.0,79,0.00,,,0.00,0,Wunderground v.1.15,2013-11-22 06:13:00,
2013-11-22 01:19:00,39.1,32.8,30.38,SW,223,0.0,0.0,78,0.00,,,0.00,0,Wunderground v.1.15,2013-11-22 06:19:00,
2013-11-22 01:25:00,39.2,32.9,30.38,SW,223,0.0,0.0,78,0.00,,,0.00,0,Wunderground v.1.15,2013-11-22 06:25:00,
2013-11-22 01:31:00,39.4,33.1,30.37,SW,223,0.0,0.0,78,0.00,,,0.00,0,Wunderground v.1.15,2013-11-22 06:31:00,
2013-11-22 01:37:00,39.8,33.8,30.37,SW,223,0.0,0.0,79,0.00,,,0.00,0,Wunderground v.1.15,2013-11-22 06:37:00,
2013-11-22 01:43:00,39.5,33.2,30.37,SW,223,0.0,0.0,78,0.00,,,0.00,0,Wunderground v.1.15,2013-11-22 06:43:00,
2013-11-22 01:49:00,39.4,33.1,30.37,SW,223,0.0,0.0,78,0.00,,,0.00,0,Wunderground v.1.15,2013-11-22 06:49:00,
2013-11-22 01:55:00,39.5,34.5,30.37,SW,223,0.0,0.0,82,0.00,,,0.00,0,Wunderground v.1.15,2013-11-22 06:55:00,
2013-11-22 02:01:00,39.6,33.6,30.37,SW,223,0.0,0.0,79,0.00,,,0.00,0,Wunderground v.1.15,2013-11-22 07:01:00,
2013-11-22 02:07:00,40.6,35.8,30.37,SW,223,0.0,0.0,83,0.00,,,0.00,0,Wunderground v.1.15,2013-11-22 07:07:00,
2013-11-22 02:13:00,40.5,34.5,30.36,SW,223,0.0,0.0,79,0.00,,,0.00,0,Wunderground v.1.15,2013-11-22 07:13:00,
2013-11-22 02:19:00,40.2,34.2,30.36,SW,223,0.0,0.0,79,0.00,,,0.00,0,Wunderground v.1.15,2013-11-22 07:19:00,
2013-11-22 02:25:00,40.1,34.1,30.36,SW,223,0.0,0.0,79,0.00,,,0.00,0,Wunderground v.1.15,2013-11-22 07:25:00,
2013-11-22 02:31:00,39.8,33.8,30.35,SW,223,0.0,0.0,79,0.00,,,0.00,0,Wunderground v.1.15,2013-11-22 07:31:00,
2013-11-22 02:37:00,39.8,33.8,30.35,SW,223,0.0,0.0,79,0.00,,,0.00,0,Wunderground v.1.15,2013-11-22 07:37:00,
2013-11-22 02:43:00,39.5,33.5,30.35,SW,223,0.0,0.0,79,0.00,,,0.00,0,Wunderground v.1.15,2013-11-22 07:43:00,
2013-11-22 02:49:00,40.1,35.0,30.35,SW,223,0.0,0.0,82,0.00,,,0.00,0,Wunderground v.1.15,2013-11-22 07:49:00,
2013-11-22 02:55:00,40.2,34.2,30.25,SW,223,0.0,-999.0,79,0.00,,,0.00,0,Wunderground v.1.15,2013-11-22 07:55:00,
2013-11-22 03:00:00,39.8,33.8,30.25,SW,223,0.0,-999.0,79,0.00,,,0.00,0,Wunderground v.1.15,2013-11-22 08:00:00,
2013-11-22 03:05:00,39.8,33.5,30.24,SW,223,0.0,-999.0,78,0.00,,,0.00,0,Wunderground v.1.15,2013-11-22 08:05:00,
2013-11-22 03:10:00,40.8,37.2,30.24,SW,223,0.0,-999.0,87,0.00,,,0.00,0,Wunderground v.1.15,2013-11-22 08:10:00,
2013-11-22 03:15:00,40.4,34.4,30.24,SW,223,0.0,-999.0,79,0.00,,,0.00,0,Wunderground v.1.15,2013-11-22 08:15:00,
2013-11-22 03:20:00,39.8,33.5,30.23,SW,223,0.0,-999.0,78,0.00,,,0.00,0,Wunderground v.1.15,2013-11-22 08:20:00,
2013-11-22 03:25:00,39.6,33.6,30.23,SW,223,0.0,-999.0,79,0.00,,,0.00,0,Wunderground v.1.15,2013-11-22 08:25:00,
2013-11-22 03:30:00,39.6,33.6,30.23,SW,223,0.0,-999.0,79,0.00,,,0.00,0,Wunderground v.1.15,2013-11-22 08:30:00,
2013-11-22 03:36:00,40.4,35.6,30.23,SW,223,0.0,-999.0,83,0.00,,,0.00,0,Wunderground v.1.15,2013-11-22 08:36:00,
2013-11-22 03:41:00,40.2,34.2,30.23,SW,223,0.0,-999.0,79,0.00,,,0.00,0,Wunderground v.1.15,2013-11-22 08:41:00,
2013-11-22 03:46:00,40.1,34.1,30.23,SW,223,0.0,-999.0,79,0.00,,,0.00,0,Wunderground v.1.15,2013-11-22 08:46:00,
2013-11-22 03:51:00,39.8,34.1,30.22,SW,223,0.0,-999.0,80,0.00,,,0.00,0,Wunderground v.1.15,2013-11-22 08:51:00,
2013-11-22 03:56:00,39.8,34.1,30.22,SW,223,0.0,-999.0,80,0.00,,,0.00,0,Wunderground v.1.15,2013-11-22 08:56:00,
2013-11-22 04:01:00,39.9,34.2,30.22,SW,223,0.0,-999.0,80,0.00,,,0.00,0,Wunderground v.1.15,2013-11-22 09:01:00,
2013-11-22 04:06:00,39.9,34.2,30.21,SW,223,0.0,-999.0,80,0.00,,,0.00,0,Wunderground v.1.15,2013-11-22 09:06:00,
2013-11-22 04:11:00,39.8,33.8,30.21,SW,223,0.0,-999.0,79,0.00,,,0.00,0,Wunderground v.1.15,2013-11-22 09:11:00,
2013-11-22 04:16:00,39.9,34.5,30.21,SW,223,0.0,-999.0,81,0.00,,,0.00,0,Wunderground v.1.15,2013-11-22 09:16:00,
2013-11-22 04:21:00,40.5,36.0,30.20,SW,223,0.0,-999.0,84,0.00,,,0.00,0,Wunderground v.1.15,2013-11-22 09:21:00,
2013-11-22 04:26:00,40.9,37.0,30.20,SW,223,0.0,-999.0,86,0.00,,,0.00,0,Wunderground v.1.15,2013-11-22 09:26:00,
2013-11-22 04:31:00,40.4,35.0,30.20,SW,223,0.0,-999.0,81,0.00,,,0.00,0,Wunderground v.1.15,2013-11-22 09:31:00,
2013-11-22 04:35:00,40.2,35.1,30.20,SW,223,0.0,-999.0,82,0.00,,,0.00,0,Wunderground v.1.15,2013-11-22 09:35:00,
2013-11-22 04:40:00,40.6,35.8,30.20,SW,223,0.0,-999.0,83,0.00,,,0.00,0,Wunderground v.1.15,2013-11-22 09:40:00,
2013-11-22 04:46:00,40.5,35.7,30.20,SW,223,0.0,-999.0,83,0.00,,,0.00,0,Wunderground v.1.15,2013-11-22 09:46:00,
2013-11-22 04:51:00,40.2,34.8,30.19,SW,223,0.0,-999.0,81,0.00,,,0.00,0,Wunderground v.1.15,2013-11-22 09:51:00,
2013-11-22 04:56:00,40.1,34.7,30.19,SW,223,0.0,-999.0,81,0.00,,,0.00,0,Wunderground v.1.15,2013-11-22 09:56:00,
2013-11-22 05:01:00,41.5,38.5,30.19,SW,223,0.0,-999.0,89,0.00,,,0.00,0,Wunderground v.1.15,2013-11-22 10:01:00,
2013-11-22 05:06:00,41.4,37.5,30.18,SW,223,0.0,-999.0,86,0.00,,,0.00,0,Wunderground v.1.15,2013-11-22 10:06:00,
2013-11-22 05:11:00,41.9,38.3,30.18,SW,223,0.0,-999.0,87,0.00,,,0.00,0,Wunderground v.1.15,2013-11-22 10:11:00,
2013-11-22 05:16:00,41.2,36.4,30.18,SW,223,0.0,-999.0,83,0.00,,,0.00,0,Wunderground v.1.15,2013-11-22 10:16:00,
2013-11-22 05:21:00,40.8,36.6,30.18,SW,223,0.0,-999.0,85,0.00,,,0.00,0,Wunderground v.1.15,2013-11-22 10:21:00,
2013-11-22 05:26:00,39.9,34.9,30.18,SW,223,0.0,-999.0,82,0.00,,,0.00,0,Wunderground v.1.15,2013-11-22 10:26:00,
2013-11-22 05:31:00,39.6,34.9,30.18,SW,223,0.0,-999.0,83,0.00,,,0.00,0,Wunderground v.1.15,2013-11-22 10:31:00,
2013-11-22 05:36:00,39.5,34.8,30.18,SW,223,0.0,-999.0,83,0.00,,,0.00,0,Wunderground v.1.15,2013-11-22 10:36:00,
2013-11-22 05:41:00,39.5,34.8,30.18,SW,223,0.0,-999.0,83,0.00,,,0.00,0,Wunderground v.1.15,2013-11-22 10:41:00,
2013-11-22 05:46:00,40.1,36.2,30.18,SW,223,0.0,-999.0,86,0.00,,,0.00,0,Wunderground v.1.15,2013-11-22 10:46:00,
2013-11-22 05:51:00,39.9,35.2,30.18,SW,223,0.0,-999.0,83,0.00,,,0.00,0,Wunderground v.1.15,2013-11-22 10:51:00,
2013-11-22 05:56:00,39.9,35.2,30.18,SW,223,0.0,-999.0,83,0.00,,,0.00,0,Wunderground v.1.15,2013-11-22 10:56:00,
2013-11-22 06:01:00,40.2,36.1,30.18,SW,223,0.0,-999.0,85,0.00,,,0.00,0,Wunderground v.1.15,2013-11-22 11:01:00,
2013-11-22 06:06:00,40.4,35.3,30.17,SW,223,0.0,-999.0,82,0.00,,,0.00,0,Wunderground v.1.15,2013-11-22 11:06:00,
2013-11-22 06:11:00,40.8,36.3,30.17,SW,223,0.0,-999.0,84,0.00,,,0.00,0,Wunderground v.1.15,2013-11-22 11:11:00,
2013-11-22 06:16:00,42.4,39.7,30.17,SW,223,0.0,-999.0,90,0.00,,,0.00,0,Wunderground v.1.15,2013-11-22 11:16:00,
2013-11-22 06:21:00,41.4,36.3,30.17,SW,223,0.0,-999.0,82,0.00,,,0.00,0,Wunderground v.1.15,2013-11-22 11:21:00,
2013-11-22 06:26:00,40.9,35.8,30.17,SW,223,0.0,-999.0,82,0.00,,,0.00,0,Wunderground v.1.15,2013-11-22 11:26:00,
2013-11-22 06:31:00,40.5,35.4,30.27,SW,223,0.0,0.0,82,0.00,,,0.00,0,Wunderground v.1.15,2013-11-22 11:31:00,
2013-11-22 06:36:00,41.4,38.4,30.16,SW,223,0.0,-999.0,89,0.00,,,0.00,0,Wunderground v.1.15,2013-11-22 11:36:00,
2013-11-22 06:41:00,41.6,38.9,30.16,SW,223,0.0,-999.0,90,0.00,,,0.00,0,Wunderground v.1.15,2013-11-22 11:41:00,
2013-11-22 06:46:00,41.1,37.2,30.16,SW,223,0.0,-999.0,86,0.00,,,0.00,0,Wunderground v.1.15,2013-11-22 11:46:00,
2013-11-22 06:51:00,40.6,37.0,30.16,SW,223,0.0,-999.0,87,0.00,,,0.00,0,Wunderground v.1.15,2013-11-22 11:51:00,
2013-11-22 06:56:00,40.2,36.6,30.16,SW,223,0.0,-999.0,87,0.00,,,0.00,0,Wunderground v.1.15,2013-11-22 11:56:00,
2013-11-22 07:01:00,39.9,36.6,30.16,SW,223,0.0,-999.0,88,0.00,,,0.00,0,Wunderground v.1.15,2013-11-22 12:01:00,
2013-11-22 07:06:00,40.1,37.1,30.15,SW,223,0.0,-999.0,89,0.00,,,0.00,0,Wunderground v.1.15,2013-11-22 12:06:00,
2013-11-22 07:11:00,42.5,40.6,30.15,SW,223,0.0,-999.0,93,0.00,,,0.00,5,Wunderground v.1.15,2013-11-22 12:11:00,
2013-11-22 07:16:00,40.9,38.8,30.15,SW,223,0.0,-999.0,92,0.00,,,0.00,5,Wunderground v.1.15,2013-11-22 12:16:00,
2013-11-22 07:21:00,40.8,38.7,30.14,SW,223,0.0,-999.0,92,0.00,,,0.00,7,Wunderground v.1.15,2013-11-22 12:21:00,
2013-11-22 07:26:00,41.2,39.3,30.14,SW,223,0.0,-999.0,93,0.00,,,0.00,9,Wunderground v.1.15,2013-11-22 12:26:00,
2013-11-22 07:31:00,43.1,41.5,30.14,SW,223,0.0,-999.0,94,0.00,,,0.00,12,Wunderground v.1.15,2013-11-22 12:31:00,
2013-11-22 07:36:00,40.9,39.0,30.14,SW,223,0.0,-999.0,93,0.00,,,0.00,11,Wunderground v.1.15,2013-11-22 12:36:00,
2013-11-22 07:41:00,40.4,38.5,30.14,SW,223,0.0,-999.0,93,0.00,,,0.00,9,Wunderground v.1.15,2013-11-22 12:41:00,
2013-11-22 07:46:00,40.2,38.3,30.14,SW,223,0.0,-999.0,93,0.00,,,0.00,11,Wunderground v.1.15,2013-11-22 12:46:00,
2013-11-22 07:51:00,40.2,38.3,30.14,SW,223,0.0,-999.0,93,0.00,,,0.00,14,Wunderground v.1.15,2013-11-22 12:51:00,
2013-11-22 07:56:00,40.4,38.5,30.14,SW,223,0.0,-999.0,93,0.00,,,0.01,16,Wunderground v.1.15,2013-11-22 12:56:00,
2013-11-22 08:01:00,40.6,39.0,30.14,SW,223,0.0,-999.0,94,0.00,,,0.01,12,Wunderground v.1.15,2013-11-22 13:01:00,
2013-11-22 08:06:00,41.1,39.5,30.14,SW,223,0.0,-999.0,94,0.00,,,0.01,16,Wunderground v.1.15,2013-11-22 13:06:00,
2013-11-22 08:11:00,41.2,39.6,30.14,SW,223,0.0,-999.0,94,0.04,,,0.02,19,Wunderground v.1.15,2013-11-22 13:11:00,
2013-11-22 08:16:00,41.1,39.5,30.14,SW,223,0.0,-999.0,94,0.04,,,0.02,21,Wunderground v.1.15,2013-11-22 13:16:00,
2013-11-22 08:21:00,41.4,40.1,30.12,SW,223,0.0,-999.0,95,0.04,,,0.02,14,Wunderground v.1.15,2013-11-22 13:21:00,
2013-11-22 08:26:00,41.1,39.8,30.12,SW,223,0.0,-999.0,95,0.00,,,0.02,18,Wunderground v.1.15,2013-11-22 13:26:00,
2013-11-22 08:31:00,41.1,39.8,30.12,SW,223,0.0,-999.0,95,0.00,,,0.03,19,Wunderground v.1.15,2013-11-22 13:31:00,
2013-11-22 08:36:00,41.1,39.8,30.12,SW,223,0.0,-999.0,95,0.00,,,0.03,18,Wunderground v.1.15,2013-11-22 13:36:00,
2013-11-22 08:41:00,41.2,39.9,30.12,SW,223,0.0,-999.0,95,0.00,,,0.03,12,Wunderground v.1.15,2013-11-22 13:41:00,
2013-11-22 08:46:00,41.4,40.1,30.12,SW,223,0.0,-999.0,95,0.00,,,0.03,18,Wunderground v.1.15,2013-11-22 13:46:00,
2013-11-22 08:51:00,41.9,40.6,30.11,SW,223,0.0,-999.0,95,0.00,,,0.03,21,Wunderground v.1.15,2013-11-22 13:51:00,
2013-11-22 08:56:00,41.6,40.3,30.11,SW,223,0.0,-999.0,95,0.00,,,0.03,25,Wunderground v.1.15,2013-11-22 13:56:00,
2013-11-22 09:01:00,41.8,40.7,30.11,SW,223,0.0,-999.0,96,0.00,,,0.04,33,Wunderground v.1.15,2013-11-22 14:01:00,
2013-11-22 09:06:00,41.6,40.5,30.10,SW,223,0.0,-999.0,96,0.00,,,0.04,56,Wunderground v.1.15,2013-11-22 14:06:00,
2013-11-22 09:11:00,41.8,40.7,30.10,SW,223,0.0,-999.0,96,0.00,,,0.04,60,Wunderground v.1.15,2013-11-22 14:11:00,
2013-11-22 09:17:00,42.1,41.0,30.20,SW,223,0.0,0.0,96,0.00,,,0.04,77,Wunderground v.1.15,2013-11-22 14:17:00,
2013-11-22 09:23:00,42.4,41.3,30.20,SW,223,0.0,0.0,96,0.00,,,0.05,40,Wunderground v.1.15,2013-11-22 14:23:00,
2013-11-22 09:29:00,42.5,41.4,30.18,SW,223,0.0,0.0,96,0.00,,,0.05,53,Wunderground v.1.15,2013-11-22 14:29:00,
2013-11-22 09:34:00,42.9,41.8,30.09,SW,223,0.0,-999.0,96,0.08,,,0.06,51,Wunderground v.1.15,2013-11-22 14:34:00,
2013-11-22 09:39:00,42.9,41.8,30.09,SW,223,0.0,-999.0,96,0.07,,,0.07,44,Wunderground v.1.15,2013-11-22 14:39:00,
2013-11-22 09:44:00,42.9,41.8,30.09,SW,223,0.0,-999.0,96,0.07,,,0.07,37,Wunderground v.1.15,2013-11-22 14:44:00,
2013-11-22 09:49:00,43.1,42.3,30.09,SW,223,0.0,-999.0,97,0.07,,,0.08,54,Wunderground v.1.15,2013-11-22 14:49:00,
2013-11-22 09:54:00,43.2,42.4,30.08,SW,223,0.0,-999.0,97,0.07,,,0.08,58,Wunderground v.1.15,2013-11-22 14:54:00,
2013-11-22 09:59:00,43.9,43.1,30.08,SW,223,0.0,-999.0,97,0.07,,,0.09,40,Wunderground v.1.15,2013-11-22 14:59:00,
2013-11-22 10:04:00,44.1,43.3,30.08,SW,223,0.0,-999.0,97,0.07,,,0.09,26,Wunderground v.1.15,2013-11-22 15:04:00,
2013-11-22 10:09:00,44.4,43.6,30.06,SW,223,0.0,-999.0,97,0.05,,,0.09,26,Wunderground v.1.15,2013-11-22 15:09:00,
2013-11-22 10:14:00,44.4,43.6,30.06,SW,223,0.0,-999.0,97,0.00,,,0.09,28,Wunderground v.1.15,2013-11-22 15:14:00,
2013-11-22 10:19:00,44.4,43.6,30.06,SW,223,0.0,-999.0,97,0.00,,,0.09,26,Wunderground v.1.15,2013-11-22 15:19:00,
2013-11-22 10:24:00,44.6,43.8,30.06,SW,223,0.0,-999.0,97,0.00,,,0.09,28,Wunderground v.1.15,2013-11-22 15:24:00,
2013-11-22 10:29:00,44.6,43.8,30.06,SW,223,0.0,-999.0,97,0.00,,,0.10,28,Wunderground v.1.15,2013-11-22 15:29:00,
2013-11-22 10:34:00,44.6,43.8,30.06,SW,223,0.0,-999.0,97,0.00,,,0.10,33,Wunderground v.1.15,2013-11-22 15:34:00,
2013-11-22 10:39:00,44.5,43.7,30.04,SW,223,0.0,-999.0,97,0.06,,,0.11,40,Wunderground v.1.15,2013-11-22 15:39:00,
2013-11-22 10:44:00,44.6,43.8,30.04,SW,223,0.0,-999.0,97,0.06,,,0.11,40,Wunderground v.1.15,2013-11-22 15:44:00,
2013-11-22 10:49:00,44.9,44.1,30.04,SW,223,0.0,-999.0,97,0.06,,,0.11,28,Wunderground v.1.15,2013-11-22 15:49:00,
2013-11-22 10:54:00,44.9,44.1,30.03,SW,223,0.0,-999.0,97,0.04,,,0.12,35,Wunderground v.1.15,2013-11-22 15:54:00,
2013-11-22 10:59:00,45.1,44.3,30.03,SW,223,0.0,-999.0,97,0.04,,,0.12,32,Wunderground v.1.15,2013-11-22 15:59:00,
2013-11-22 11:04:00,44.9,44.1,30.03,SW,223,0.0,-999.0,97,0.06,,,0.13,40,Wunderground v.1.15,2013-11-22 16:04:00,
2013-11-22 11:09:00,44.9,44.1,30.01,SW,223,0.0,-999.0,97,0.06,,,0.13,46,Wunderground v.1.15,2013-11-22 16:09:00,
2013-11-22 11:14:00,45.7,44.9,30.01,SW,223,0.0,-999.0,97,0.05,,,0.13,54,Wunderground v.1.15,2013-11-22 16:14:00,
2013-11-22 11:19:00,45.7,44.9,30.01,SW,223,0.0,-999.0,97,0.04,,,0.13,54,Wunderground v.1.15,2013-11-22 16:19:00,
2013-11-22 11:24:00,46.0,45.2,30.00,SW,223,0.0,-999.0,97,0.04,,,0.14,53,Wunderground v.1.15,2013-11-22 16:24:00,
2013-11-22 11:29:00,45.7,44.9,30.00,SW,223,0.0,-999.0,97,0.04,,,0.14,30,Wunderground v.1.15,2013-11-22 16:29:00,
2013-11-22 11:34:00,45.8,45.0,30.00,SW,223,0.0,-999.0,97,0.04,,,0.14,39,Wunderground v.1.15,2013-11-22 16:34:00,
2013-11-22 11:40:00,46.0,45.2,29.99,SW,223,0.0,-999.0,97,0.00,,,0.14,33,Wunderground v.1.15,2013-11-22 16:40:00,
2013-11-22 11:45:00,46.0,45.2,29.99,SW,223,0.0,-999.0,97,0.00,,,0.14,25,Wunderground v.1.15,2013-11-22 16:45:00,
2013-11-22 11:50:00,46.1,45.3,29.99,SW,223,0.0,-999.0,97,0.00,,,0.14,28,Wunderground v.1.15,2013-11-22 16:50:00,
2013-11-22 11:55:00,46.1,45.3,29.98,SW,223,0.0,-999.0,97,0.00,,,0.14,26,Wunderground v.1.15,2013-11-22 16:55:00,
2013-11-22 12:00:00,46.1,45.3,29.98,SW,223,0.0,-999.0,97,0.00,,,0.15,26,Wunderground v.1.15,2013-11-22 17:00:00,
2013-11-22 12:05:00,46.3,45.5,29.98,SW,223,0.0,-999.0,97,0.00,,,0.15,30,Wunderground v.1.15,2013-11-22 17:05:00,
2013-11-22 12:10:00,46.4,45.6,29.97,SW,223,0.0,-999.0,97,0.00,,,0.15,32,Wunderground v.1.15,2013-11-22 17:10:00,
2013-11-22 12:15:00,46.7,45.9,29.97,SW,223,1.0,-999.0,97,0.00,,,0.15,47,Wunderground v.1.15,2013-11-22 17:15:00,
2013-11-22 12:20:00,46.8,46.0,29.97,SW,223,1.0,-999.0,97,0.00,,,0.15,53,Wunderground v.1.15,2013-11-22 17:20:00,
2013-11-22 12:25:00,47.1,46.3,29.97,SW,223,0.0,-999.0,97,0.00,,,0.15,65,Wunderground v.1.15,2013-11-22 17:25:00,
2013-11-22 12:30:00,47.3,46.5,29.97,SW,223,0.0,-999.0,97,0.00,,,0.16,54,Wunderground v.1.15,2013-11-22 17:30:00,
2013-11-22 12:35:00,47.4,46.6,29.95,SW,223,0.0,-999.0,97,0.00,,,0.16,46,Wunderground v.1.15,2013-11-22 17:35:00,
2013-11-22 12:40:00,47.6,46.8,29.95,SW,223,0.0,-999.0,97,0.00,,,0.16,46,Wunderground v.1.15,2013-11-22 17:40:00,
2013-11-22 12:45:00,47.7,47.2,29.95,SW,223,0.0,-999.0,98,0.00,,,0.16,46,Wunderground v.1.15,2013-11-22 17:45:00,
2013-11-22 12:50:00,47.9,47.4,29.94,SW,223,0.0,-999.0,98,0.00,,,0.16,35,Wunderground v.1.15,2013-11-22 17:50:00,
2013-11-22 12:55:00,48.0,47.5,30.05,SW,223,0.0,0.0,98,0.00,,,0.16,37,Wunderground v.1.15,2013-11-22 17:55:00,
2013-11-22 13:00:00,48.0,47.5,29.94,SW,223,0.0,-999.0,98,0.00,,,0.16,33,Wunderground v.1.15,2013-11-22 18:00:00,
2013-11-22 13:05:00,48.2,47.7,29.93,SW,223,0.0,-999.0,98,0.00,,,0.16,47,Wunderground v.1.15,2013-11-22 18:05:00,
2013-11-22 13:10:00,48.2,47.7,29.93,SW,223,0.0,-999.0,98,0.00,,,0.16,49,Wunderground v.1.15,2013-11-22 18:10:00,
2013-11-22 13:15:00,48.3,47.8,29.93,SW,223,0.0,-999.0,98,0.00,,,0.16,33,Wunderground v.1.15,2013-11-22 18:15:00,
2013-11-22 13:20:00,48.5,48.0,29.92,SW,223,0.0,-999.0,98,0.00,,,0.16,35,Wunderground v.1.15,2013-11-22 18:20:00,
2013-11-22 13:25:00,48.6,48.1,29.92,SW,223,0.0,-999.0,98,0.00,,,0.16,40,Wunderground v.1.15,2013-11-22 18:25:00,
2013-11-22 13:30:00,48.9,48.4,29.92,SW,223,0.0,-999.0,98,0.00,,,0.16,76,Wunderground v.1.15,2013-11-22 18:30:00,
2013-11-22 13:35:00,48.8,48.3,29.93,SW,223,0.0,-999.0,98,0.00,,,0.16,63,Wunderground v.1.15,2013-11-22 18:35:00,
2013-11-22 13:40:00,48.9,48.4,29.93,SW,223,1.0,-999.0,98,0.00,,,0.16,81,Wunderground v.1.15,2013-11-22 18:40:00,
2013-11-22 13:45:00,49.1,48.6,29.93,SW,223,0.0,-999.0,98,0.00,,,0.16,95,Wunderground v.1.15,2013-11-22 18:45:00,
2013-11-22 13:50:00,49.2,48.7,29.92,SW,223,0.0,-999.0,98,0.00,,,0.16,63,Wunderground v.1.15,2013-11-22 18:50:00,
2013-11-22 13:55:00,49.4,48.9,29.92,SW,223,0.0,-999.0,98,0.00,,,0.16,62,Wunderground v.1.15,2013-11-22 18:55:00,
2013-11-22 14:00:00,49.5,49.0,29.92,SW,223,0.0,-999.0,98,0.00,,,0.16,39,Wunderground v.1.15,2013-11-22 19:00:00,
2013-11-22 14:05:00,50.1,49.6,29.91,SW,223,0.0,-999.0,98,0.00,,,0.16,56,Wunderground v.1.15,2013-11-22 19:05:00,
2013-11-22 14:10:00,49.9,49.4,29.91,SW,223,0.0,-999.0,98,0.00,,,0.16,74,Wunderground v.1.15,2013-11-22 19:10:00,
2013-11-22 14:15:00,49.8,49.3,29.91,SW,223,1.0,-999.0,98,0.00,,,0.16,105,Wunderground v.1.15,2013-11-22 19:15:00,
2013-11-22 14:20:00,50.2,49.7,29.91,SW,223,0.0,-999.0,98,0.00,,,0.16,142,Wunderground v.1.15,2013-11-22 19:20:00,
2013-11-22 14:25:00,50.2,49.7,29.91,SW,223,0.0,-999.0,98,0.00,,,0.16,135,Wunderground v.1.15,2013-11-22 19:25:00,
2013-11-22 14:30:00,50.4,49.9,29.91,SW,223,2.0,-999.0,98,0.00,,,0.16,54,Wunderground v.1.15,2013-11-22 19:30:00,
2013-11-22 14:35:00,50.5,50.0,29.91,West,264,3.0,-999.0,98,0.00,,,0.16,58,Wunderground v.1.15,2013-11-22 19:35:00,
2013-11-22 14:40:00,50.7,50.2,29.91,West,281,3.0,-999.0,98,0.00,,,0.16,47,Wunderground v.1.15,2013-11-22 19:40:00,
2013-11-22 14:46:00,50.7,50.2,29.91,West,275,3.0,-999.0,98,0.00,,,0.16,40,Wunderground v.1.15,2013-11-22 19:46:00,
2013-11-22 14:51:00,50.7,49.9,29.90,West,278,3.0,-999.0,97,0.00,,,0.16,42,Wunderground v.1.15,2013-11-22 19:51:00,
2013-11-22 14:56:00,50.5,49.7,29.90,WSW,256,4.0,-999.0,97,0.00,,,0.16,33,Wunderground v.1.15,2013-11-22 19:56:00,
2013-11-22 15:01:00,50.7,49.9,29.90,West,260,2.0,-999.0,97,0.00,,,0.16,42,Wunderground v.1.15,2013-11-22 20:01:00,
2013-11-22 15:06:00,50.5,49.4,29.91,West,272,2.0,-999.0,96,0.00,,,0.16,37,Wunderground v.1.15,2013-11-22 20:06:00,
2013-11-22 15:11:00,50.5,48.0,30.01,West,267,3.0,3.0,91,0.00,,,0.16,32,Wunderground v.1.15,2013-11-22 20:11:00,
2013-11-22 15:16:00,50.5,47.7,29.91,West,269,0.0,-999.0,90,0.00,,,0.16,28,Wunderground v.1.15,2013-11-22 20:16:00,
2013-11-22 15:21:00,50.4,47.6,29.90,WSW,249,1.0,-999.0,90,0.00,,,0.16,23,Wunderground v.1.15,2013-11-22 20:21:00,
2013-11-22 15:26:00,50.2,47.4,29.90,WSW,249,1.0,-999.0,90,0.00,,,0.16,33,Wunderground v.1.15,2013-11-22 20:26:00,
2013-11-22 15:31:00,50.2,47.4,29.90,West,263,0.0,-999.0,90,0.00,,,0.16,26,Wunderground v.1.15,2013-11-22 20:31:00,
2013-11-22 15:36:00,50.1,47.3,29.89,West,263,1.0,-999.0,90,0.00,,,0.16,21,Wunderground v.1.15,2013-11-22 20:36:00,
2013-11-22 15:41:00,50.1,47.3,29.89,West,269,4.0,-999.0,90,0.00,,,0.16,16,Wunderground v.1.15,2013-11-22 20:41:00,
2013-11-22 15:46:00,50.1,47.3,29.89,West,269,0.0,-999.0,90,0.00,,,0.16,12,Wunderground v.1.15,2013-11-22 20:46:00,
2013-11-22 15:51:00,49.9,47.1,29.89,West,269,1.0,-999.0,90,0.00,,,0.16,9,Wunderground v.1.15,2013-11-22 20:51:00,
2013-11-22 15:56:00,49.9,47.1,29.89,West,268,2.0,-999.0,90,0.00,,,0.16,0,Wunderground v.1.15,2013-11-22 20:56:00,
2013-11-22 16:01:00,49.8,47.0,29.89,West,276,0.0,-999.0,90,0.00,,,0.16,0,Wunderground v.1.15,2013-11-22 21:01:00,
2013-11-22 16:06:00,49.8,46.7,29.89,WNW,286,0.0,-999.0,89,0.00,,,0.16,0,Wunderground v.1.15,2013-11-22 21:06:00,
2013-11-22 16:11:00,49.7,46.9,29.89,WSW,246,3.0,-999.0,90,0.00,,,0.16,0,Wunderground v.1.15,2013-11-22 21:11:00,
2013-11-22 16:16:00,49.5,46.7,29.89,WSW,247,3.0,-999.0,90,0.00,,,0.16,0,Wunderground v.1.15,2013-11-22 21:16:00,
2013-11-22 16:21:00,49.4,46.6,29.89,WNW,282,1.0,-999.0,90,0.00,,,0.16,0,Wunderground v.1.15,2013-11-22 21:21:00,
2013-11-22 16:26:00,49.5,46.7,29.89,West,267,2.0,-999.0,90,0.00,,,0.16,0,Wunderground v.1.15,2013-11-22 21:26:00,
2013-11-22 16:31:00,49.5,46.4,29.89,West,278,0.0,-999.0,89,0.00,,,0.16,0,Wunderground v.1.15,2013-11-22 21:31:00,
2013-11-22 16:36:00,49.4,46.6,29.89,WNW,303,0.0,-999.0,90,0.00,,,0.16,0,Wunderground v.1.15,2013-11-22 21:36:00,
2013-11-22 16:41:00,49.4,46.6,29.89,WNW,303,0.0,-999.0,90,0.00,,,0.16,0,Wunderground v.1.15,2013-11-22 21:41:00,
2013-11-22 16:46:00,49.4,46.3,29.89,WNW,291,1.0,-999.0,89,0.00,,,0.16,0,Wunderground v.1.15,2013-11-22 21:46:00,
2013-11-22 16:51:00,49.4,46.6,29.88,WNW,291,0.0,-999.0,90,0.00,,,0.16,0,Wunderground v.1.15,2013-11-22 21:51:00,
2013-11-22 16:56:00,49.2,46.4,29.88,WNW,291,0.0,-999.0,90,0.00,,,0.16,0,Wunderground v.1.15,2013-11-22 21:56:00,
2013-11-22 17:01:00,49.2,46.4,29.88,WNW,291,0.0,-999.0,90,0.00,,,0.16,0,Wunderground v.1.15,2013-11-22 22:01:00,
2013-11-22 17:06:00,49.2,46.4,29.87,WNW,291,0.0,-999.0,90,0.00,,,0.16,0,Wunderground v.1.15,2013-11-22 22:06:00,
2013-11-22 17:11:00,49.2,46.4,29.87,WNW,291,0.0,-999.0,90,0.00,,,0.16,0,Wunderground v.1.15,2013-11-22 22:11:00,
2013-11-22 17:16:00,49.2,46.4,29.87,WNW,291,0.0,-999.0,90,0.00,,,0.16,0,Wunderground v.1.15,2013-11-22 22:16:00,
2013-11-22 17:21:00,49.1,46.3,29.87,WNW,291,0.0,-999.0,90,0.00,,,0.16,0,Wunderground v.1.15,2013-11-22 22:21:00,
2013-11-22 17:26:00,48.9,46.4,29.87,WNW,291,0.0,-999.0,91,0.00,,,0.16,0,Wunderground v.1.15,2013-11-22 22:26:00,
2013-11-22 17:31:00,48.8,46.3,29.87,WNW,291,0.0,-999.0,91,0.00,,,0.16,0,Wunderground v.1.15,2013-11-22 22:31:00,
2013-11-22 17:36:00,48.8,46.3,29.86,WNW,291,0.0,-999.0,91,0.00,,,0.16,0,Wunderground v.1.15,2013-11-22 22:36:00,
2013-11-22 17:41:00,48.6,46.4,29.86,WNW,291,0.0,-999.0,92,0.00,,,0.16,0,Wunderground v.1.15,2013-11-22 22:41:00,
2013-11-22 17:46:00,48.5,46.3,29.86,WNW,291,2.0,-999.0,92,0.00,,,0.16,0,Wunderground v.1.15,2013-11-22 22:46:00,
2013-11-22 17:51:00,48.5,46.6,29.87,WNW,291,0.0,-999.0,93,0.00,,,0.16,0,Wunderground v.1.15,2013-11-22 22:51:00,
2013-11-22 17:56:00,48.3,46.4,29.87,WNW,291,0.0,-999.0,93,0.00,,,0.16,0,Wunderground v.1.15,2013-11-22 22:56:00,
2013-11-22 18:01:00,48.3,46.4,29.87,WNW,291,0.0,-999.0,93,0.00,,,0.16,0,Wunderground v.1.15,2013-11-22 23:01:00,
2013-11-22 18:06:00,48.5,46.6,29.87,WNW,291,1.0,-999.0,93,0.00,,,0.16,0,Wunderground v.1.15,2013-11-22 23:06:00,
2013-11-22 18:11:00,48.5,46.6,29.87,WNW,291,0.0,-999.0,93,0.00,,,0.16,0,Wunderground v.1.15,2013-11-22 23:11:00,
2013-11-22 18:16:00,48.3,46.4,29.87,WNW,291,0.0,-999.0,93,0.00,,,0.16,0,Wunderground v.1.15,2013-11-22 23:16:00,
2013-11-22 18:21:00,48.3,46.4,29.86,WNW,291,0.0,-999.0,93,0.00,,,0.16,0,Wunderground v.1.15,2013-11-22 23:21:00,
2013-11-22 18:26:00,48.3,46.4,29.86,WNW,291,0.0,-999.0,93,0.00,,,0.16,0,Wunderground v.1.15,2013-11-22 23:26:00,
2013-11-22 18:31:00,48.3,46.4,29.86,WNW,291,0.0,-999.0,93,0.00,,,0.16,0,Wunderground v.1.15,2013-11-22 23:31:00,
2013-11-22 18:36:00,48.2,46.3,29.85,WNW,291,0.0,-999.0,93,0.00,,,0.16,0,Wunderground v.1.15,2013-11-22 23:36:00,
2013-11-22 18:41:00,48.3,46.4,29.85,WNW,291,0.0,-999.0,93,0.00,,,0.16,0,Wunderground v.1.15,2013-11-22 23:41:00,
2013-11-22 18:46:00,48.3,46.4,29.85,WNW,291,0.0,-999.0,93,0.00,,,0.16,0,Wunderground v.1.15,2013-11-22 23:46:00,
2013-11-22 18:51:00,48.3,46.4,29.84,WNW,291,0.0,-999.0,93,0.00,,,0.16,0,Wunderground v.1.15,2013-11-22 23:51:00,
2013-11-22 18:56:00,48.3,46.4,29.84,WNW,291,0.0,-999.0,93,0.00,,,0.16,0,Wunderground v.1.15,2013-11-22 23:56:00,
2013-11-22 19:01:00,48.3,46.4,29.84,WNW,291,0.0,-999.0,93,0.00,,,0.16,0,Wunderground v.1.15,2013-11-23 00:01:00,
2013-11-22 19:06:00,48.3,46.4,29.85,WNW,291,0.0,-999.0,93,0.00,,,0.16,0,Wunderground v.1.15,2013-11-23 00:06:00,
2013-11-22 19:11:00,48.2,46.3,29.85,WNW,291,0.0,-999.0,93,0.00,,,0.16,0,Wunderground v.1.15,2013-11-23 00:11:00,
2013-11-22 19:17:00,48.2,46.3,29.85,WNW,291,0.0,-999.0,93,0.00,,,0.16,0,Wunderground v.1.15,2013-11-23 00:17:00,
2013-11-22 19:22:00,48.2,46.3,29.85,WNW,291,0.0,-999.0,93,0.00,,,0.16,0,Wunderground v.1.15,2013-11-23 00:22:00,
2013-11-22 19:27:00,48.2,46.3,29.85,WNW,291,0.0,-999.0,93,0.00,,,0.16,0,Wunderground v.1.15,2013-11-23 00:27:00,
2013-11-22 19:32:00,48.2,46.6,29.85,WNW,291,0.0,-999.0,94,0.00,,,0.16,0,Wunderground v.1.15,2013-11-23 00:32:00,
2013-11-22 19:37:00,48.2,46.6,29.84,WNW,291,0.0,-999.0,94,0.00,,,0.16,0,Wunderground v.1.15,2013-11-23 00:37:00,
2013-11-22 19:42:00,48.3,46.7,29.84,WNW,291,0.0,-999.0,94,0.00,,,0.16,0,Wunderground v.1.15,2013-11-23 00:42:00,
2013-11-22 19:47:00,48.3,46.4,29.84,WNW,291,0.0,-999.0,93,0.00,,,0.16,0,Wunderground v.1.15,2013-11-23 00:47:00,
2013-11-22 19:52:00,48.3,46.4,29.84,WNW,291,0.0,-999.0,93,0.00,,,0.16,0,Wunderground v.1.15,2013-11-23 00:52:00,
2013-11-22 19:57:00,48.3,46.4,29.84,WNW,291,0.0,-999.0,93,0.00,,,0.16,0,Wunderground v.1.15,2013-11-23 00:57:00,
2013-11-22 20:02:00,48.3,46.4,29.84,WNW,291,0.0,-999.0,93,0.00,,,0.16,0,Wunderground v.1.15,2013-11-23 01:02:00,
2013-11-22 20:07:00,48.3,46.4,29.84,WNW,291,0.0,-999.0,93,0.00,,,0.16,0,Wunderground v.1.15,2013-11-23 01:07:00,
2013-11-22 20:12:00,48.3,46.4,29.84,WNW,291,0.0,-999.0,93,0.00,,,0.16,0,Wunderground v.1.15,2013-11-23 01:12:00,
2013-11-22 20:17:00,48.3,46.4,29.84,WNW,291,0.0,-999.0,93,0.00,,,0.16,0,Wunderground v.1.15,2013-11-23 01:17:00,
2013-11-22 20:22:00,48.3,46.4,29.83,WNW,291,0.0,-999.0,93,0.00,,,0.16,0,Wunderground v.1.15,2013-11-23 01:22:00,
2013-11-22 20:27:00,48.3,46.4,29.83,WNW,291,0.0,-999.0,93,0.00,,,0.16,0,Wunderground v.1.15,2013-11-23 01:27:00,
2013-11-22 20:32:00,48.3,46.4,29.83,WNW,291,0.0,-999.0,93,0.00,,,0.16,0,Wunderground v.1.15,2013-11-23 01:32:00,
2013-11-22 20:37:00,48.3,46.4,29.83,WNW,291,0.0,-999.0,93,0.00,,,0.16,0,Wunderground v.1.15,2013-11-23 01:37:00,
2013-11-22 20:42:00,48.3,46.4,29.83,WNW,291,0.0,-999.0,93,0.00,,,0.16,0,Wunderground v.1.15,2013-11-23 01:42:00,
2013-11-22 20:47:00,48.3,46.4,29.83,WNW,291,0.0,-999.0,93,0.00,,,0.16,0,Wunderground v.1.15,2013-11-23 01:47:00,
2013-11-22 20:52:00,48.3,46.4,29.82,WNW,291,0.0,-999.0,93,0.00,,,0.16,0,Wunderground v.1.15,2013-11-23 01:52:00,
2013-11-22 20:57:00,48.3,46.4,29.82,WNW,291,0.0,-999.0,93,0.00,,,0.16,0,Wunderground v.1.15,2013-11-23 01:57:00,
2013-11-22 21:02:00,48.3,46.4,29.82,WNW,291,0.0,-999.0,93,0.00,,,0.16,0,Wunderground v.1.15,2013-11-23 02:02:00,
2013-11-22 21:07:00,48.3,46.4,29.81,WNW,291,0.0,-999.0,93,0.00,,,0.16,0,Wunderground v.1.15,2013-11-23 02:07:00,
2013-11-22 21:12:00,48.3,46.4,29.81,WNW,291,0.0,-999.0,93,0.00,,,0.16,0,Wunderground v.1.15,2013-11-23 02:12:00,
2013-11-22 21:17:00,48.3,46.4,29.81,WNW,291,0.0,-999.0,93,0.00,,,0.16,0,Wunderground v.1.15,2013-11-23 02:17:00,
2013-11-22 21:22:00,48.3,46.4,29.80,WNW,291,0.0,-999.0,93,0.00,,,0.16,0,Wunderground v.1.15,2013-11-23 02:22:00,
2013-11-22 21:27:00,48.2,46.3,29.80,WNW,291,0.0,-999.0,93,0.00,,,0.16,0,Wunderground v.1.15,2013-11-23 02:27:00,
2013-11-22 21:32:00,48.2,46.3,29.80,WSW,237,1.0,-999.0,93,0.00,,,0.16,0,Wunderground v.1.15,2013-11-23 02:32:00,
2013-11-22 21:37:00,48.0,46.1,29.80,WSW,237,0.0,-999.0,93,0.00,,,0.16,0,Wunderground v.1.15,2013-11-23 02:37:00,
2013-11-22 21:42:00,48.0,46.1,29.80,WSW,237,0.0,-999.0,93,0.00,,,0.16,0,Wunderground v.1.15,2013-11-23 02:42:00,
2013-11-22 21:48:00,48.0,46.1,29.80,WSW,237,1.0,-999.0,93,0.00,,,0.16,0,Wunderground v.1.15,2013-11-23 02:48:00,
2013-11-22 21:53:00,48.0,46.1,29.79,WSW,237,0.0,-999.0,93,0.00,,,0.16,0,Wunderground v.1.15,2013-11-23 02:53:00,
2013-11-22 21:58:00,48.0,46.1,29.79,WSW,237,0.0,-999.0,93,0.00,,,0.16,0,Wunderground v.1.15,2013-11-23 02:58:00,
2013-11-22 22:03:00,48.0,46.1,29.89,WSW,237,0.0,0.0,93,0.00,,,0.16,0,Wunderground v.1.15,2013-11-23 03:03:00,
2013-11-22 22:09:00,47.9,46.3,29.89,WSW,237,0.0,0.0,94,0.00,,,0.16,0,Wunderground v.1.15,2013-11-23 03:09:00,
2013-11-22 22:15:00,48.0,46.4,29.89,WSW,237,0.0,0.0,94,0.00,,,0.16,0,Wunderground v.1.15,2013-11-23 03:15:00,
2013-11-22 22:21:00,47.9,46.3,29.89,WSW,237,0.0,0.0,94,0.00,,,0.16,0,Wunderground v.1.15,2013-11-23 03:21:00,
2013-11-22 22:27:00,48.0,46.4,29.89,WSW,237,0.0,0.0,94,0.00,,,0.16,0,Wunderground v.1.15,2013-11-23 03:27:00,
2013-11-22 22:33:00,47.9,46.3,29.88,WSW,237,0.0,0.0,94,0.00,,,0.16,0,Wunderground v.1.15,2013-11-23 03:33:00,
2013-11-22 22:39:00,47.9,46.3,29.88,WSW,237,0.0,0.0,94,0.00,,,0.16,0,Wunderground v.1.15,2013-11-23 03:39:00,
2013-11-22 22:45:00,47.9,46.3,29.87,WSW,237,0.0,0.0,94,0.00,,,0.16,0,Wunderground v.1.15,2013-11-23 03:45:00,
2013-11-22 22:51:00,47.9,46.3,29.87,WSW,237,0.0,0.0,94,0.00,,,0.16,0,Wunderground v.1.15,2013-11-23 03:51:00,
2013-11-22 22:57:00,47.7,46.1,29.87,WSW,237,0.0,0.0,94,0.00,,,0.16,0,Wunderground v.1.15,2013-11-23 03:57:00,
2013-11-22 23:03:00,47.7,46.1,29.86,WSW,237,0.0,0.0,94,0.00,,,0.16,0,Wunderground v.1.15,2013-11-23 04:03:00,
2013-11-22 23:09:00,47.7,46.1,29.86,WSW,237,0.0,0.0,94,0.00,,,0.16,0,Wunderground v.1.15,2013-11-23 04:09:00,
2013-11-22 23:15:00,47.7,46.3,29.87,WSW,237,0.0,0.0,95,0.00,,,0.16,0,Wunderground v.1.15,2013-11-23 04:15:00,
2013-11-22 23:21:00,47.7,46.3,29.87,WSW,237,0.0,0.0,95,0.00,,,0.16,0,Wunderground v.1.15,2013-11-23 04:21:00,
2013-11-22 23:27:00,47.6,46.2,29.87,WSW,237,0.0,0.0,95,0.00,,,0.16,0,Wunderground v.1.15,2013-11-23 04:27:00,
2013-11-22 23:33:00,47.6,46.2,29.87,WSW,237,0.0,0.0,95,0.00,,,0.16,0,Wunderground v.1.15,2013-11-23 04:33:00,
2013-11-22 23:39:00,47.4,46.0,29.87,WSW,237,0.0,0.0,95,0.00,,,0.16,0,Wunderground v.1.15,2013-11-23 04:39:00,
2013-11-22 23:45:00,47.4,46.0,29.86,WSW,237,0.0,0.0,95,0.00,,,0.16,0,Wunderground v.1.15,2013-11-23 04:45:00,
2013-11-22 23:51:00,47.6,46.2,29.86,WSW,237,0.0,0.0,95,0.00,,,0.16,0,Wunderground v.1.15,2013-11-23 04:51:00,
2013-11-22 23:57:00,47.6,46.2,29.86,WSW,237,0.0,0.0,95,0.00,,,0.16,0,Wunderground v.1.15,2013-11-23 04:57:00,